createdAt,value
2022-07-25T00:01:20.861Z,24.50
2022-07-25T00:03:49.054Z,24.50
2022-07-25T00:06:17.897Z,24.40
2022-07-25T00:08:46.073Z,24.40
2022-07-25T00:11:15.485Z,24.40
2022-07-25T00:13:43.483Z,24.40
2022-07-25T00:16:11.548Z,24.40
2022-07-25T00:18:39.534Z,24.30
2022-07-25T00:21:07.744Z,24.30
2022-07-25T00:23:35.716Z,24.30
2022-07-25T00:26:03.918Z,24.30
2022-07-25T00:28:33.313Z,24.20
2022-07-25T00:31:01.429Z,24.20
2022-07-25T00:33:29.400Z,24.10
2022-07-25T00:35:57.434Z,24.10
2022-07-25T00:38:25.480Z,24.00
2022-07-25T00:40:54.163Z,24.00
2022-07-25T00:43:23.315Z,23.90
2022-07-25T00:45:52.764Z,23.90
2022-07-25T00:48:21.059Z,23.90
2022-07-25T00:50:49.450Z,23.80
2022-07-25T00:53:17.659Z,23.80
2022-07-25T00:55:45.887Z,23.80
2022-07-25T00:58:14.431Z,23.70
2022-07-25T01:00:42.645Z,23.70
2022-07-25T01:03:12.044Z,23.60
2022-07-25T01:05:40.591Z,23.60
2022-07-25T01:08:09.231Z,23.60
2022-07-25T01:10:37.700Z,23.50
2022-07-25T01:13:06.084Z,23.50
2022-07-25T01:15:34.267Z,23.50
2022-07-25T01:18:02.367Z,23.50
2022-07-25T01:20:32.939Z,23.40
2022-07-25T01:23:02.157Z,23.40
2022-07-25T01:25:30.212Z,23.40
2022-07-25T01:27:58.478Z,23.30
2022-07-25T01:30:26.983Z,23.20
2022-07-25T01:32:54.974Z,23.30
2022-07-25T01:35:22.975Z,23.20
2022-07-25T01:37:52.438Z,23.20
2022-07-25T01:40:20.399Z,23.20
2022-07-25T01:42:48.426Z,23.10
2022-07-25T01:45:16.450Z,23.20
2022-07-25T01:47:44.380Z,23.10
2022-07-25T01:50:12.461Z,23.10
2022-07-25T01:52:40.685Z,23.10
2022-07-25T01:55:10.907Z,23.10
2022-07-25T01:57:40.815Z,23.00
2022-07-25T02:00:18.330Z,23.00
2022-07-25T02:02:47.151Z,23.00
2022-07-25T02:05:16.283Z,23.00
2022-07-25T02:07:44.297Z,23.00
2022-07-25T02:10:13.629Z,23.00
2022-07-25T02:12:41.611Z,23.00
2022-07-25T02:15:10.494Z,22.90
2022-07-25T02:17:38.562Z,22.90
2022-07-25T02:20:07.756Z,22.90
2022-07-25T02:22:35.747Z,22.90
2022-07-25T02:25:03.656Z,22.90
2022-07-25T02:27:32.985Z,22.80
2022-07-25T02:30:00.921Z,22.80
2022-07-25T02:32:28.856Z,22.80
2022-07-25T02:34:58.364Z,22.80
2022-07-25T02:37:26.470Z,22.70
2022-07-25T02:39:54.413Z,22.60
2022-07-25T02:42:22.406Z,22.60
2022-07-25T02:44:51.752Z,22.50
2022-07-25T02:47:19.767Z,22.50
2022-07-25T02:49:47.733Z,22.40
2022-07-25T02:52:15.839Z,22.40
2022-07-25T02:54:43.951Z,22.30
2022-07-25T02:57:12.009Z,22.30
2022-07-25T02:59:39.978Z,22.20
2022-07-25T03:02:09.371Z,22.20
2022-07-25T03:04:37.364Z,22.20
2022-07-25T03:07:05.497Z,22.10
2022-07-25T03:09:33.408Z,22.10
2022-07-25T03:12:01.357Z,22.10
2022-07-25T03:14:29.351Z,22.10
2022-07-25T03:16:57.528Z,22.00
2022-07-25T03:19:26.851Z,22.10
2022-07-25T03:21:54.858Z,22.10
2022-07-25T03:24:22.841Z,22.10
2022-07-25T03:26:50.813Z,22.10
2022-07-25T03:29:18.756Z,22.10
2022-07-25T03:31:46.802Z,22.00
2022-07-25T03:34:14.799Z,22.10
2022-07-25T03:36:44.248Z,22.10
2022-07-25T03:39:12.618Z,22.10
2022-07-25T03:41:40.583Z,22.10
2022-07-25T03:44:09.530Z,22.10
2022-07-25T03:46:37.898Z,22.10
2022-07-25T03:49:06.307Z,22.00
2022-07-25T03:51:34.364Z,22.00
2022-07-25T03:54:04.059Z,22.10
2022-07-25T03:56:43.326Z,22.10
2022-07-25T03:59:13.616Z,22.10
2022-07-25T04:01:42.830Z,22.20
2022-07-25T04:04:11.390Z,22.50
2022-07-25T04:06:39.954Z,22.90
2022-07-25T04:09:12.209Z,23.40
2022-07-25T04:11:40.882Z,23.80
2022-07-25T04:14:09.717Z,24.20
2022-07-25T04:16:38.226Z,24.60
2022-07-25T04:19:08.697Z,25.00
2022-07-25T04:21:36.811Z,25.30
2022-07-25T04:24:05.451Z,25.60
2022-07-25T04:26:34.951Z,25.90
2022-07-25T04:29:03.736Z,26.30
2022-07-25T04:31:31.993Z,26.50
2022-07-25T04:34:00.166Z,26.70
2022-07-25T04:36:28.285Z,27.00
2022-07-25T04:38:56.323Z,27.20
2022-07-25T04:41:24.294Z,27.60
2022-07-25T04:43:53.620Z,28.20
2022-07-25T04:46:22.233Z,29.10
2022-07-25T04:48:51.429Z,29.80
2022-07-25T04:51:20.275Z,30.40
2022-07-25T04:53:48.438Z,31.10
2022-07-25T04:56:16.450Z,31.70
2022-07-25T04:58:46.868Z,32.30
2022-07-25T05:01:16.312Z,32.70
2022-07-25T05:03:50.347Z,33.00
2022-07-25T05:06:18.770Z,33.40
2022-07-25T05:08:46.832Z,33.60
2022-07-25T05:11:14.783Z,33.70
2022-07-25T05:13:42.804Z,33.90
2022-07-25T05:16:10.914Z,33.80
2022-07-25T05:18:40.629Z,33.50
2022-07-25T05:21:11.656Z,33.40
2022-07-25T05:23:40.220Z,33.50
2022-07-25T05:26:08.410Z,33.70
2022-07-25T05:28:36.747Z,33.80
2022-07-25T05:31:05.066Z,34.20
2022-07-25T05:33:33.197Z,34.70
2022-07-25T05:36:03.399Z,34.60
2022-07-25T05:38:31.746Z,35.00
2022-07-25T05:40:59.743Z,34.80
2022-07-25T05:43:27.959Z,35.10
2022-07-25T05:46:01.741Z,35.20
2022-07-25T05:48:29.904Z,34.80
2022-07-25T05:51:00.707Z,34.90
2022-07-25T05:53:30.107Z,35.00
2022-07-25T05:55:58.173Z,35.60
2022-07-25T05:58:29.606Z,35.70
2022-07-25T06:00:58.518Z,35.80
2022-07-25T06:03:26.807Z,36.00
2022-07-25T06:05:56.518Z,36.10
2022-07-25T06:08:24.951Z,36.10
2022-07-25T06:10:54.357Z,36.70
2022-07-25T06:13:23.543Z,37.00
2022-07-25T06:15:51.728Z,37.80
2022-07-25T06:18:19.812Z,38.20
2022-07-25T06:20:48.846Z,38.40
2022-07-25T06:23:17.623Z,38.30
2022-07-25T06:25:50.374Z,38.60
2022-07-25T06:28:19.980Z,39.20
2022-07-25T06:30:48.207Z,39.40
2022-07-25T06:33:16.281Z,39.70
2022-07-25T06:35:44.283Z,40.10
2022-07-25T06:38:12.508Z,40.10
2022-07-25T06:40:40.944Z,40.10
2022-07-25T06:43:08.924Z,39.60
2022-07-25T06:45:39.186Z,39.60
2022-07-25T06:48:07.659Z,39.90
2022-07-25T06:50:35.968Z,40.50
2022-07-25T06:53:04.154Z,40.60
2022-07-25T06:55:32.527Z,40.30
2022-07-25T06:58:00.596Z,40.60
2022-07-25T07:00:28.679Z,40.60
2022-07-25T07:03:01.345Z,40.90
2022-07-25T07:05:31.229Z,41.10
2022-07-25T07:08:00.251Z,40.80
2022-07-25T07:10:29.675Z,41.00
2022-07-25T07:13:07.676Z,41.70
2022-07-25T07:15:36.908Z,41.80
2022-07-25T07:18:07.632Z,42.00
2022-07-25T07:20:36.116Z,42.40
2022-07-25T07:23:04.781Z,42.70
2022-07-25T07:25:35.378Z,42.80
2022-07-25T07:28:04.310Z,42.70
2022-07-25T07:31:05.751Z,42.40
2022-07-25T07:33:22.785Z,42.30
2022-07-25T07:35:50.765Z,42.80
2022-07-25T07:38:19.221Z,43.20
2022-07-25T07:40:47.365Z,43.50
2022-07-25T07:43:15.712Z,43.70
2022-07-25T07:45:44.951Z,43.70
2022-07-25T07:48:13.275Z,43.70
2022-07-25T07:50:43.001Z,43.40
2022-07-25T07:53:11.041Z,43.10
2022-07-25T07:55:48.754Z,43.40
2022-07-25T07:58:18.260Z,42.80
2022-07-25T08:00:47.927Z,42.30
2022-07-25T08:03:19.187Z,42.60
2022-07-25T08:05:51.784Z,43.80
2022-07-25T08:08:19.946Z,44.60
2022-07-25T08:10:50.214Z,44.70
2022-07-25T08:13:20.949Z,44.80
2022-07-25T08:15:52.457Z,45.10
2022-07-25T08:18:20.945Z,45.20
2022-07-25T08:20:50.904Z,45.20
2022-07-25T08:23:19.660Z,45.70
2022-07-25T08:25:48.062Z,45.20
2022-07-25T08:28:16.353Z,44.20
2022-07-25T08:30:44.645Z,44.00
2022-07-25T08:33:16.070Z,44.00
2022-07-25T08:35:48.590Z,44.00
2022-07-25T08:38:18.245Z,44.40
2022-07-25T08:40:46.397Z,44.20
2022-07-25T08:43:15.228Z,43.80
2022-07-25T08:45:46.683Z,43.50
2022-07-25T08:48:14.978Z,43.10
2022-07-25T08:50:43.277Z,43.30
2022-07-25T08:53:32.174Z,43.70
2022-07-25T08:56:00.891Z,43.90
2022-07-25T08:58:29.385Z,44.00
2022-07-25T09:00:59.457Z,44.20
2022-07-25T09:03:28.238Z,44.80
2022-07-25T09:05:56.350Z,45.20
2022-07-25T09:08:24.365Z,45.20
2022-07-25T09:10:54.367Z,44.60
2022-07-25T09:13:23.713Z,44.50
2022-07-25T09:15:53.860Z,45.10
2022-07-25T09:18:24.996Z,45.70
2022-07-25T09:20:56.151Z,46.00
2022-07-25T09:23:35.056Z,46.00
2022-07-25T09:26:04.599Z,46.00
2022-07-25T09:28:40.664Z,46.50
2022-07-25T09:31:09.797Z,46.90
2022-07-25T09:33:47.689Z,46.00
2022-07-25T09:36:15.793Z,45.40
2022-07-25T09:38:53.678Z,45.20
2022-07-25T09:41:21.976Z,45.60
2022-07-25T09:43:51.395Z,46.20
2022-07-25T09:46:30.104Z,46.10
2022-07-25T09:48:59.335Z,46.20
2022-07-25T09:51:27.987Z,45.70
2022-07-25T09:53:56.159Z,45.50
2022-07-25T09:56:24.147Z,46.30
2022-07-25T09:58:53.453Z,47.20
2022-07-25T10:01:29.897Z,47.20
2022-07-25T10:04:11.096Z,47.30
2022-07-25T10:06:42.398Z,47.10
2022-07-25T10:09:13.233Z,47.10
2022-07-25T10:11:41.759Z,47.50
2022-07-25T10:14:14.272Z,47.30
2022-07-25T10:16:47.980Z,46.90
2022-07-25T10:19:16.223Z,47.10
2022-07-25T10:21:55.629Z,46.90
2022-07-25T10:24:34.464Z,46.30
2022-07-25T10:27:10.215Z,45.80
2022-07-25T10:29:40.762Z,45.60
2022-07-25T10:32:10.046Z,45.80
2022-07-25T10:34:39.005Z,45.40
2022-07-25T10:37:14.921Z,45.40
2022-07-25T10:39:44.747Z,45.90
2022-07-25T10:42:15.597Z,45.90
2022-07-25T10:44:48.741Z,46.30
2022-07-25T10:47:17.954Z,46.90
2022-07-25T10:50:13.873Z,47.30
2022-07-25T10:52:42.832Z,47.00
2022-07-25T10:55:10.952Z,46.80
2022-07-25T10:57:45.324Z,46.10
2022-07-25T11:00:20.068Z,45.30
2022-07-25T11:02:51.345Z,44.90
2022-07-25T11:05:19.398Z,45.10
2022-07-25T11:08:11.530Z,45.60
2022-07-25T11:10:40.680Z,45.80
2022-07-25T11:13:12.559Z,45.60
2022-07-25T11:15:42.209Z,45.80
2022-07-25T11:18:10.200Z,45.40
2022-07-25T11:20:38.291Z,44.90
2022-07-25T11:23:06.744Z,44.60
2022-07-25T11:25:34.830Z,44.20
2022-07-25T11:28:04.046Z,44.00
2022-07-25T11:30:32.466Z,43.90
2022-07-25T11:33:02.415Z,44.10
2022-07-25T11:35:32.249Z,44.30
2022-07-25T11:38:02.264Z,44.40
2022-07-25T11:40:32.764Z,44.20
2022-07-25T11:43:00.979Z,43.60
2022-07-25T11:45:30.919Z,43.20
2022-07-25T11:48:10.579Z,42.70
2022-07-25T11:50:40.325Z,42.30
2022-07-25T11:53:10.010Z,42.30
2022-07-25T11:55:40.976Z,42.20
2022-07-25T11:58:10.389Z,42.20
2022-07-25T12:00:42.737Z,42.20
2022-07-25T12:03:19.132Z,42.00
2022-07-25T12:05:49.383Z,41.60
2022-07-25T12:08:27.062Z,41.40
2022-07-25T12:10:55.771Z,41.30
2022-07-25T12:13:24.984Z,41.10
2022-07-25T12:15:53.186Z,40.90
2022-07-25T12:18:22.766Z,40.80
2022-07-25T12:20:50.771Z,40.20
2022-07-25T12:23:21.663Z,39.90
2022-07-25T12:25:49.836Z,39.70
2022-07-25T12:28:17.968Z,39.60
2022-07-25T12:30:49.499Z,39.40
2022-07-25T12:33:19.783Z,39.40
2022-07-25T12:35:49.195Z,39.40
2022-07-25T12:38:17.174Z,39.30
2022-07-25T12:40:45.486Z,39.20
2022-07-25T12:43:13.707Z,39.10
2022-07-25T12:45:42.616Z,38.80
2022-07-25T12:48:11.220Z,38.50
2022-07-25T12:50:39.184Z,38.20
2022-07-25T12:53:08.591Z,38.00
2022-07-25T12:55:36.632Z,37.80
2022-07-25T12:58:04.849Z,37.80
2022-07-25T13:00:32.803Z,37.80
2022-07-25T13:03:01.020Z,37.70
2022-07-25T13:05:29.869Z,37.60
2022-07-25T13:07:57.941Z,37.70
2022-07-25T13:10:27.266Z,37.60
2022-07-25T13:12:56.287Z,37.60
2022-07-25T13:15:28.256Z,37.60
2022-07-25T13:17:56.225Z,37.60
2022-07-25T13:20:24.761Z,37.60
2022-07-25T13:22:52.774Z,37.60
2022-07-25T13:25:20.955Z,37.80
2022-07-25T13:27:50.447Z,37.80
2022-07-25T13:30:18.425Z,37.80
2022-07-25T13:32:46.546Z,37.80
2022-07-25T13:35:20.126Z,37.80
2022-07-25T13:37:48.860Z,37.60
2022-07-25T13:40:16.830Z,37.40
2022-07-25T13:42:44.849Z,37.30
2022-07-25T13:45:14.261Z,37.30
2022-07-25T13:47:42.678Z,37.30
2022-07-25T13:50:11.537Z,37.20
2022-07-25T13:52:41.514Z,37.10
2022-07-25T13:55:12.699Z,37.10
2022-07-25T13:57:40.734Z,37.00
2022-07-25T14:00:10.430Z,37.00
2022-07-25T14:02:40.013Z,36.90
2022-07-25T14:05:08.708Z,36.90
2022-07-25T14:07:36.907Z,36.90
2022-07-25T14:10:07.615Z,36.80
2022-07-25T14:12:37.275Z,36.60
2022-07-25T14:15:06.611Z,36.60
2022-07-25T14:17:35.373Z,36.60
2022-07-25T14:20:05.675Z,36.50
2022-07-25T14:22:34.008Z,36.50
2022-07-25T14:25:02.455Z,36.40
2022-07-25T14:27:30.656Z,36.40
2022-07-25T14:29:58.971Z,36.40
2022-07-25T14:32:27.596Z,36.30
2022-07-25T14:35:00.954Z,36.40
2022-07-25T14:37:31.809Z,36.40
2022-07-25T14:40:01.728Z,36.50
2022-07-25T14:42:36.220Z,36.60
2022-07-25T14:45:05.615Z,36.60
2022-07-25T14:47:33.877Z,36.60
2022-07-25T14:50:02.611Z,36.60
2022-07-25T14:52:32.293Z,36.60
2022-07-25T14:55:01.083Z,36.50
2022-07-25T14:57:29.431Z,36.50
2022-07-25T14:59:57.592Z,36.40
2022-07-25T15:02:25.984Z,36.40
2022-07-25T15:04:54.176Z,36.30
2022-07-25T15:07:23.077Z,36.40
2022-07-25T15:09:52.656Z,36.40
2022-07-25T15:12:21.836Z,36.40
2022-07-25T15:14:50.313Z,36.40
2022-07-25T15:17:22.181Z,36.30
2022-07-25T15:19:50.635Z,36.10
2022-07-25T15:22:19.232Z,36.00
2022-07-25T15:25:27.560Z,35.80
2022-07-25T15:27:43.491Z,35.60
2022-07-25T15:30:29.515Z,35.50
2022-07-25T15:33:00.839Z,35.60
2022-07-25T15:35:35.293Z,35.60
2022-07-25T15:38:05.997Z,35.70
2022-07-25T15:40:35.365Z,35.70
2022-07-25T15:43:06.878Z,35.70
2022-07-25T15:45:39.313Z,35.70
2022-07-25T15:48:16.935Z,35.80
2022-07-25T15:50:53.079Z,35.90
2022-07-25T15:53:25.198Z,35.90
2022-07-25T15:55:58.579Z,36.00
2022-07-25T15:58:26.953Z,36.10
2022-07-25T16:00:55.518Z,36.20
2022-07-25T16:03:24.071Z,36.10
2022-07-25T16:05:53.963Z,35.90
2022-07-25T16:08:24.696Z,35.80
2022-07-25T16:10:54.240Z,35.70
2022-07-25T16:13:24.193Z,35.60
2022-07-25T16:15:54.827Z,35.50
2022-07-25T16:18:23.308Z,35.30
2022-07-25T16:20:54.079Z,35.20
2022-07-25T16:23:23.316Z,35.10
2022-07-25T16:25:53.732Z,34.90
2022-07-25T16:28:23.130Z,34.80
2022-07-25T16:30:53.299Z,34.70
2022-07-25T16:33:24.169Z,34.60
2022-07-25T16:35:54.342Z,34.50
2022-07-25T16:38:22.285Z,34.40
2022-07-25T16:40:53.075Z,34.30
2022-07-25T16:43:23.872Z,34.10
2022-07-25T16:45:52.001Z,34.10
2022-07-25T16:48:27.732Z,34.10
2022-07-25T16:50:56.337Z,34.20
2022-07-25T16:53:25.869Z,34.40
2022-07-25T16:55:54.015Z,34.60
2022-07-25T16:58:26.268Z,34.80
2022-07-25T17:00:54.250Z,34.90
2022-07-25T17:03:24.779Z,34.90
2022-07-25T17:05:53.937Z,35.00
2022-07-25T17:08:22.010Z,34.90
2022-07-25T17:10:58.162Z,34.90
2022-07-25T17:13:27.515Z,34.90
2022-07-25T17:15:58.659Z,34.90
2022-07-25T17:18:26.679Z,34.90
2022-07-25T17:20:54.749Z,34.90
2022-07-25T17:23:22.733Z,35.00
2022-07-25T17:25:51.194Z,35.00
2022-07-25T17:28:19.110Z,35.00
2022-07-25T17:30:48.503Z,34.90
2022-07-25T17:33:17.508Z,34.80
2022-07-25T17:35:45.942Z,34.60
2022-07-25T17:38:14.753Z,34.40
2022-07-25T17:40:42.748Z,34.40
2022-07-25T17:43:11.004Z,34.30
2022-07-25T17:45:39.930Z,34.20
2022-07-25T17:48:09.958Z,34.10
2022-07-25T17:50:41.048Z,34.10
2022-07-25T17:53:09.586Z,34.10
2022-07-25T17:55:39.125Z,34.00
2022-07-25T17:58:39.922Z,33.90
2022-07-25T18:01:19.140Z,33.90
2022-07-25T18:04:02.883Z,33.90
2022-07-25T18:07:00.452Z,33.80
2022-07-25T18:12:47.682Z,33.80
2022-07-25T18:15:24.612Z,33.70
2022-07-25T18:24:05.370Z,33.20
2022-07-25T18:26:41.430Z,33.20
2022-07-25T18:29:15.959Z,33.00
2022-07-25T18:35:01.793Z,32.90
2022-07-25T18:37:42.899Z,32.80
2022-07-25T18:40:24.033Z,32.80
2022-07-25T18:43:18.162Z,32.60
2022-07-25T18:45:51.030Z,32.60
2022-07-25T18:48:20.003Z,32.50
2022-07-25T18:50:48.775Z,32.50
2022-07-25T18:53:19.288Z,32.40
2022-07-25T18:55:47.967Z,32.40
2022-07-25T18:58:18.190Z,32.30
2022-07-25T19:00:46.665Z,32.20
2022-07-25T19:03:18.076Z,32.20
2022-07-25T19:05:46.399Z,32.10
2022-07-25T19:08:14.548Z,32.10
2022-07-25T19:10:44.206Z,32.00
2022-07-25T19:13:26.772Z,32.00
2022-07-25T19:16:02.868Z,32.00
2022-07-25T19:18:31.031Z,31.90
2022-07-25T19:20:59.383Z,31.80
2022-07-25T19:23:27.660Z,31.70
2022-07-25T19:25:58.006Z,31.70
2022-07-25T19:28:26.106Z,31.60
2022-07-25T19:30:54.429Z,31.50
2022-07-25T19:33:22.608Z,31.50
2022-07-25T19:35:50.979Z,31.50
2022-07-25T19:38:20.733Z,31.40
2022-07-25T19:40:48.803Z,31.40
2022-07-25T19:43:18.537Z,31.30
2022-07-25T19:45:46.977Z,31.30
2022-07-25T19:48:15.041Z,31.20
2022-07-25T19:50:43.572Z,31.20
2022-07-25T19:53:12.021Z,31.20
2022-07-25T19:55:40.228Z,31.10
2022-07-25T19:58:08.498Z,31.10
2022-07-25T20:00:38.694Z,31.00
2022-07-25T20:03:06.953Z,31.00
2022-07-25T20:05:35.030Z,31.00
2022-07-25T20:08:06.920Z,30.90
2022-07-25T20:10:35.195Z,30.80
2022-07-25T20:13:03.595Z,30.70
2022-07-25T20:15:31.612Z,30.70
2022-07-25T20:18:03.822Z,30.50
2022-07-25T20:20:40.927Z,30.50
2022-07-25T20:23:09.195Z,30.40
2022-07-25T20:25:40.384Z,30.30
2022-07-25T20:28:19.018Z,30.30
2022-07-25T20:30:55.828Z,30.30
2022-07-25T20:33:29.905Z,30.20
2022-07-25T20:36:09.855Z,30.20
2022-07-25T20:38:42.402Z,30.10
2022-07-25T20:41:23.522Z,30.10
2022-07-25T20:43:53.829Z,30.00
2022-07-25T20:46:23.883Z,29.90
2022-07-25T20:48:59.342Z,29.80
2022-07-25T20:51:27.448Z,29.80
2022-07-25T20:54:01.510Z,29.70
2022-07-25T20:56:33.069Z,29.60
2022-07-25T20:59:01.481Z,29.50
2022-07-25T21:01:39.029Z,29.40
2022-07-25T21:04:09.675Z,29.40
2022-07-25T21:06:41.360Z,29.30
2022-07-25T21:09:14.797Z,29.30
2022-07-25T21:11:43.199Z,29.20
2022-07-25T21:14:11.663Z,29.10
2022-07-25T21:16:40.669Z,29.00
2022-07-25T21:19:11.063Z,29.00
2022-07-25T21:21:39.506Z,29.00
2022-07-25T21:24:08.385Z,28.90
2022-07-25T21:26:37.122Z,28.90
2022-07-25T21:29:05.540Z,28.80
2022-07-25T21:31:34.110Z,28.80
2022-07-25T21:34:02.475Z,28.60
2022-07-25T21:36:32.069Z,28.60
2022-07-25T21:39:00.008Z,28.50
2022-07-25T21:41:28.403Z,28.50
2022-07-25T21:43:56.429Z,28.40
2022-07-25T21:46:24.572Z,28.40
2022-07-25T21:49:10.305Z,28.30
2022-07-25T21:51:41.250Z,28.30
2022-07-25T21:54:11.143Z,28.30
2022-07-25T21:56:41.204Z,28.30
2022-07-25T21:59:09.761Z,28.20
2022-07-25T22:01:38.052Z,28.20
2022-07-25T22:04:06.676Z,28.00
2022-07-25T22:06:34.747Z,27.90
2022-07-25T22:09:05.191Z,27.90
2022-07-25T22:11:43.040Z,27.80
2022-07-25T22:14:15.047Z,27.80
2022-07-25T22:16:43.224Z,27.70
2022-07-25T22:19:11.629Z,27.60
2022-07-25T22:21:41.497Z,27.50
2022-07-25T22:24:11.278Z,27.50
2022-07-25T22:26:39.271Z,27.40
2022-07-25T22:29:07.657Z,27.40
2022-07-25T22:31:36.015Z,27.30
2022-07-25T22:34:04.037Z,27.30
2022-07-25T22:36:32.046Z,27.10
2022-07-25T22:39:00.102Z,27.10
2022-07-25T22:41:29.561Z,27.10
2022-07-25T22:43:59.911Z,27.00
2022-07-25T22:46:28.567Z,27.00
2022-07-25T22:48:57.125Z,27.00
2022-07-25T22:51:25.442Z,27.00
2022-07-25T22:53:53.510Z,26.90
2022-07-25T22:56:21.846Z,26.90
2022-07-25T22:58:51.400Z,26.90
2022-07-25T23:01:19.865Z,26.80
2022-07-25T23:03:49.967Z,26.80
2022-07-25T23:06:18.766Z,26.80
2022-07-25T23:08:46.733Z,26.80
2022-07-25T23:11:14.813Z,26.70
2022-07-25T23:13:42.781Z,26.70
2022-07-25T23:16:12.114Z,26.70
2022-07-25T23:18:40.137Z,26.60
2022-07-25T23:21:08.516Z,26.60
2022-07-25T23:23:36.435Z,26.60
2022-07-25T23:26:04.489Z,26.90
2022-07-25T23:28:32.472Z,26.50
2022-07-25T23:31:00.481Z,26.50
2022-07-25T23:33:31.098Z,26.50
2022-07-25T23:35:58.998Z,26.50
2022-07-25T23:38:26.898Z,26.60
2022-07-25T23:40:55.055Z,26.50
2022-07-25T23:43:54.428Z,26.50
2022-07-25T23:46:10.868Z,26.50
2022-07-25T23:48:41.057Z,26.50
2022-07-25T23:51:09.039Z,26.50
2022-07-25T23:53:37.499Z,26.40
2022-07-25T23:56:06.130Z,26.40
2022-07-25T23:58:34.104Z,26.30
